createdAt,value
2022-09-02T00:01:45.198Z,7.67
2022-09-02T00:04:20.358Z,7.65
2022-09-02T00:06:50.376Z,7.61
2022-09-02T00:09:22.344Z,7.59
2022-09-02T00:11:53.167Z,7.59
2022-09-02T00:14:24.920Z,7.59
2022-09-02T00:16:54.043Z,7.59
2022-09-02T00:19:25.491Z,7.55
2022-09-02T00:21:54.929Z,7.52
2022-09-02T00:24:25.062Z,7.49
2022-09-02T00:26:56.548Z,7.49
2022-09-02T00:29:26.071Z,7.48
2022-09-02T00:31:54.949Z,7.47
2022-09-02T00:34:23.999Z,7.44
2022-09-02T00:36:53.113Z,7.41
2022-09-02T00:39:22.380Z,7.39
2022-09-02T00:41:51.673Z,7.41
2022-09-02T00:44:24.652Z,7.38
2022-09-02T00:46:53.045Z,7.34
2022-09-02T00:49:25.320Z,7.31
2022-09-02T00:51:58.837Z,7.27
2022-09-02T00:54:29.240Z,7.27
2022-09-02T00:56:58.078Z,7.26
2022-09-02T00:59:37.290Z,7.22
2022-09-02T01:02:08.170Z,7.19
2022-09-02T01:04:37.194Z,7.17
2022-09-02T01:07:06.676Z,7.16
2022-09-02T01:09:36.311Z,7.14
2022-09-02T01:12:05.890Z,7.10
2022-09-02T01:14:36.724Z,7.08
2022-09-02T01:17:07.119Z,7.09
2022-09-02T01:19:39.752Z,7.09
2022-09-02T01:22:17.611Z,7.11
2022-09-02T01:24:46.120Z,7.06
2022-09-02T01:27:17.345Z,7.05
2022-09-02T01:29:46.584Z,7.03
2022-09-02T01:32:15.371Z,7.01
2022-09-02T01:34:43.936Z,7.00
2022-09-02T01:37:15.613Z,7.05
2022-09-02T01:39:45.277Z,7.11
2022-09-02T01:42:20.445Z,7.11
2022-09-02T01:44:48.915Z,7.01
2022-09-02T01:47:23.581Z,6.91
2022-09-02T01:49:52.743Z,6.85
2022-09-02T01:52:25.277Z,6.80
2022-09-02T01:54:54.050Z,6.73
2022-09-02T01:57:24.708Z,6.66
2022-09-02T01:59:54.010Z,6.59
2022-09-02T02:02:23.602Z,6.60
2022-09-02T02:04:52.699Z,6.61
2022-09-02T02:07:24.943Z,6.55
2022-09-02T02:09:53.528Z,6.53
2022-09-02T02:12:22.692Z,6.54
2022-09-02T02:14:51.441Z,6.48
2022-09-02T02:17:20.903Z,6.35
2022-09-02T02:19:49.517Z,6.21
2022-09-02T02:22:17.953Z,6.13
2022-09-02T02:24:47.872Z,6.06
2022-09-02T02:27:16.520Z,6.08
2022-09-02T02:29:45.791Z,6.10
2022-09-02T02:32:18.539Z,6.15
2022-09-02T02:34:48.213Z,6.15
2022-09-02T02:37:17.354Z,6.12
2022-09-02T02:39:47.629Z,6.07
2022-09-02T02:42:17.824Z,6.04
2022-09-02T02:44:47.745Z,6.03
2022-09-02T02:47:16.669Z,6.00
2022-09-02T02:49:45.652Z,5.95
2022-09-02T02:52:14.777Z,5.90
2022-09-02T02:54:45.224Z,5.89
2022-09-02T02:57:15.155Z,5.92
2022-09-02T02:59:43.753Z,5.89
2022-09-02T03:02:13.944Z,5.86
2022-09-02T03:04:43.054Z,5.95
2022-09-02T03:07:12.161Z,5.97
2022-09-02T03:09:40.963Z,5.98
2022-09-02T03:12:11.413Z,5.92
2022-09-02T03:14:42.427Z,5.88
2022-09-02T03:17:11.305Z,5.83
2022-09-02T03:19:40.024Z,5.83
2022-09-02T03:22:11.099Z,5.86
2022-09-02T03:24:39.797Z,5.91
2022-09-02T03:27:08.695Z,5.95
2022-09-02T03:29:37.192Z,5.94
2022-09-02T03:32:07.298Z,5.86
2022-09-02T03:34:37.199Z,5.80
2022-09-02T03:37:06.636Z,5.78
2022-09-02T03:39:35.690Z,5.74
2022-09-02T03:42:05.737Z,5.70
2022-09-02T03:44:35.665Z,5.68
2022-09-02T03:47:04.742Z,5.69
2022-09-02T03:49:36.449Z,5.64
2022-09-02T03:52:05.374Z,5.60
2022-09-02T03:54:33.991Z,5.58
2022-09-02T03:57:02.472Z,5.60
2022-09-02T03:59:31.710Z,5.61
2022-09-02T04:02:00.546Z,5.60
2022-09-02T04:04:29.750Z,5.57
2022-09-02T04:07:00.998Z,5.58
2022-09-02T04:09:29.785Z,5.60
2022-09-02T04:11:58.766Z,5.60
2022-09-02T04:14:27.811Z,5.61
2022-09-02T04:16:57.028Z,5.59
2022-09-02T04:19:25.979Z,5.59
2022-09-02T04:21:54.980Z,5.63
2022-09-02T04:24:25.013Z,5.74
2022-09-02T04:26:53.501Z,5.80
2022-09-02T04:29:22.142Z,5.88
2022-09-02T04:31:54.138Z,6.00
2022-09-02T04:34:24.165Z,6.07
2022-09-02T04:36:56.503Z,6.17
2022-09-02T04:39:27.029Z,6.24
2022-09-02T04:41:55.831Z,6.23
2022-09-02T04:44:27.548Z,6.19
2022-09-02T04:46:56.252Z,6.13
2022-09-02T04:49:25.971Z,6.14
2022-09-02T04:51:56.727Z,6.18
2022-09-02T04:54:28.367Z,6.23
2022-09-02T04:57:01.160Z,6.29
2022-09-02T04:59:30.740Z,6.38
2022-09-02T05:02:08.786Z,6.46
2022-09-02T05:04:38.035Z,6.53
2022-09-02T05:07:12.214Z,6.62
2022-09-02T05:09:47.822Z,6.75
2022-09-02T05:12:19.686Z,6.92
2022-09-02T05:15:00.363Z,7.14
2022-09-02T05:17:33.293Z,7.35
2022-09-02T05:20:03.775Z,7.50
2022-09-02T05:22:37.881Z,7.67
2022-09-02T05:25:11.520Z,7.84
2022-09-02T05:27:40.807Z,7.99
2022-09-02T05:30:11.134Z,8.15
2022-09-02T05:32:41.541Z,8.34
2022-09-02T05:35:13.925Z,8.50
2022-09-02T05:37:42.831Z,8.65
2022-09-02T05:40:14.957Z,8.77
2022-09-02T05:42:45.459Z,8.90
2022-09-02T05:45:18.299Z,9.01
2022-09-02T05:47:48.772Z,9.11
2022-09-02T05:50:18.268Z,9.18
2022-09-02T05:52:52.399Z,9.23
2022-09-02T05:55:25.023Z,9.32
2022-09-02T05:57:54.272Z,9.41
2022-09-02T06:00:24.641Z,9.52
2022-09-02T06:03:01.086Z,9.68
2022-09-02T06:05:36.096Z,9.87
2022-09-02T06:08:14.893Z,10.11
2022-09-02T06:10:44.964Z,10.34
2022-09-02T06:13:22.999Z,10.59
2022-09-02T06:15:55.989Z,10.81
2022-09-02T06:18:29.340Z,11.05
2022-09-02T06:21:00.414Z,11.23
2022-09-02T06:23:36.052Z,11.43
2022-09-02T06:26:07.593Z,11.59
2022-09-02T06:28:37.357Z,11.75
2022-09-02T06:31:10.961Z,11.93
2022-09-02T06:33:39.507Z,12.11
2022-09-02T06:36:10.825Z,12.30
2022-09-02T06:38:45.619Z,12.44
2022-09-02T06:41:19.870Z,12.67
2022-09-02T06:43:48.564Z,12.86
2022-09-02T06:46:25.355Z,13.07
2022-09-02T06:48:57.234Z,13.31
2022-09-02T06:51:28.608Z,13.54
2022-09-02T06:53:59.175Z,13.78
2022-09-02T06:56:37.094Z,14.04
2022-09-02T06:59:07.750Z,14.20
2022-09-02T07:01:51.845Z,14.38
2022-09-02T07:04:41.788Z,14.54
2022-09-02T07:07:13.903Z,14.65
2022-09-02T07:09:50.671Z,14.65
2022-09-02T07:12:21.388Z,14.69
2022-09-02T07:15:12.085Z,14.84
2022-09-02T07:17:42.337Z,15.04
2022-09-02T07:20:15.318Z,15.33
2022-09-02T07:25:21.101Z,15.83
2022-09-02T07:27:53.195Z,16.03
2022-09-02T07:30:22.190Z,16.22
2022-09-02T07:32:56.863Z,16.43
2022-09-02T07:35:28.453Z,16.49
2022-09-02T07:37:57.953Z,16.60
2022-09-02T07:40:26.765Z,16.63
2022-09-02T07:42:58.179Z,16.68
2022-09-02T07:45:28.107Z,16.74
2022-09-02T07:47:56.753Z,16.85
2022-09-02T07:50:27.288Z,17.04
2022-09-02T07:52:57.943Z,17.23
2022-09-02T07:55:29.521Z,17.27
2022-09-02T07:58:00.149Z,17.32
2022-09-02T08:00:29.103Z,17.44
2022-09-02T08:03:04.353Z,17.63
2022-09-02T08:05:38.877Z,17.80
2022-09-02T08:08:08.199Z,17.90
2022-09-02T08:10:38.665Z,18.07
2022-09-02T08:13:10.752Z,18.23
2022-09-02T08:15:39.166Z,18.37
2022-09-02T08:18:08.538Z,18.63
2022-09-02T08:20:47.965Z,18.83
2022-09-02T08:23:25.684Z,18.96
2022-09-02T08:26:05.857Z,19.12
2022-09-02T08:28:36.451Z,19.31
2022-09-02T08:31:08.201Z,19.40
2022-09-02T08:33:37.397Z,19.53
2022-09-02T08:36:07.086Z,19.74
2022-09-02T08:38:37.053Z,19.91
2022-09-02T08:41:15.158Z,20.14
2022-09-02T08:43:47.327Z,20.31
2022-09-02T08:46:18.659Z,20.49
2022-09-02T08:48:53.170Z,20.83
2022-09-02T08:51:32.090Z,20.99
2022-09-02T08:54:11.458Z,21.15
2022-09-02T08:56:42.310Z,21.35
2022-09-02T08:59:15.228Z,21.66
2022-09-02T09:01:47.727Z,21.80
2022-09-02T09:04:35.981Z,21.93
2022-09-02T09:07:24.972Z,22.00
2022-09-02T09:10:11.024Z,22.02
2022-09-02T09:13:09.236Z,22.18
2022-09-02T09:15:50.409Z,22.35
2022-09-02T09:18:22.219Z,22.62
2022-09-02T09:20:50.652Z,22.63
2022-09-02T09:23:33.989Z,22.62
2022-09-02T09:26:09.114Z,22.78
2022-09-02T09:28:43.930Z,23.02
2022-09-02T09:31:17.165Z,23.26
2022-09-02T09:34:03.213Z,23.51
2022-09-02T09:36:53.807Z,23.93
2022-09-02T09:39:25.841Z,24.22
2022-09-02T09:41:56.271Z,24.33
2022-09-02T09:44:45.186Z,24.37
2022-09-02T09:47:22.999Z,23.60
2022-09-02T09:49:53.249Z,22.66
2022-09-02T09:52:27.413Z,21.85
2022-09-02T09:55:25.133Z,21.22
2022-09-02T09:57:54.682Z,20.99
2022-09-02T10:00:29.411Z,21.42
2022-09-02T10:03:02.890Z,21.40
2022-09-02T10:05:35.598Z,21.09
2022-09-02T10:08:08.297Z,21.42
2022-09-02T10:10:57.844Z,21.76
2022-09-02T10:13:30.216Z,22.43
2022-09-02T10:16:24.826Z,22.41
2022-09-02T10:19:00.790Z,22.83
2022-09-02T10:21:51.938Z,23.50
2022-09-02T10:24:43.073Z,24.09
2022-09-02T10:27:17.968Z,24.34
2022-09-02T10:29:57.128Z,24.62
2022-09-02T10:32:44.173Z,24.72
2022-09-02T10:35:23.326Z,24.62
2022-09-02T10:38:07.994Z,24.26
2022-09-02T10:40:44.781Z,24.36
2022-09-02T10:43:29.242Z,24.76
2022-09-02T10:46:02.431Z,24.98
2022-09-02T10:48:46.444Z,25.05
2022-09-02T10:51:29.129Z,25.15
2022-09-02T10:54:14.798Z,25.53
2022-09-02T10:56:51.248Z,25.15
2022-09-02T10:59:23.894Z,24.99
2022-09-02T11:01:57.198Z,24.95
2022-09-02T11:04:39.186Z,25.13
2022-09-02T11:07:11.290Z,25.34
2022-09-02T11:09:46.122Z,25.79
2022-09-02T11:12:22.116Z,25.98
2022-09-02T11:15:04.429Z,26.23
2022-09-02T11:17:41.009Z,26.45
2022-09-02T11:20:16.536Z,26.41
2022-09-02T11:22:56.444Z,26.68
2022-09-02T11:25:29.256Z,26.04
2022-09-02T11:28:07.172Z,25.93
2022-09-02T11:30:45.008Z,25.24
2022-09-02T11:33:20.969Z,24.35
2022-09-02T11:35:51.060Z,23.52
2022-09-02T11:38:34.934Z,22.86
2022-09-02T11:41:36.869Z,23.28
2022-09-02T11:44:29.375Z,23.15
2022-09-02T11:47:20.489Z,23.00
2022-09-02T11:50:24.510Z,24.07
2022-09-02T11:53:05.105Z,24.84
2022-09-02T11:55:38.639Z,25.28
2022-09-02T11:58:07.170Z,25.72
2022-09-02T12:00:38.182Z,24.98
2022-09-02T12:03:38.850Z,23.92
2022-09-02T12:06:13.538Z,23.12
2022-09-02T12:09:05.270Z,23.80
2022-09-02T12:11:47.214Z,24.65
2022-09-02T12:15:07.456Z,25.05
2022-09-02T12:18:11.173Z,25.91
2022-09-02T12:21:16.650Z,25.58
2022-09-02T12:24:26.391Z,24.22
2022-09-02T12:27:24.709Z,23.25
2022-09-02T12:29:54.177Z,23.71
2022-09-02T12:33:08.189Z,24.58
2022-09-02T12:35:57.899Z,25.26
2022-09-02T12:38:33.357Z,25.91
2022-09-02T12:41:24.063Z,26.15
2022-09-02T12:44:12.595Z,25.68
2022-09-02T12:46:54.617Z,25.75
2022-09-02T12:49:44.047Z,26.14
2022-09-02T12:52:34.559Z,26.43
2022-09-02T12:55:06.139Z,26.60
2022-09-02T12:57:43.407Z,26.60
2022-09-02T13:00:20.088Z,26.70
2022-09-02T13:03:03.372Z,26.90
2022-09-02T13:05:49.018Z,26.40
2022-09-02T13:08:53.919Z,26.19
2022-09-02T13:12:13.109Z,25.61
2022-09-02T13:15:00.183Z,24.81
2022-09-02T13:17:48.326Z,24.32
2022-09-02T13:20:47.190Z,24.42
2022-09-02T13:23:44.148Z,24.04
2022-09-02T13:26:48.799Z,23.50
2022-09-02T13:30:00.385Z,22.78
2022-09-02T13:32:31.968Z,22.33
2022-09-02T13:35:05.752Z,21.99
2022-09-02T13:37:37.309Z,21.72
2022-09-02T13:40:20.331Z,21.53
2022-09-02T13:42:51.079Z,21.86
2022-09-02T13:45:22.481Z,22.72
2022-09-02T13:47:53.982Z,23.66
2022-09-02T13:50:27.597Z,24.48
2022-09-02T13:55:53.163Z,24.94
2022-09-02T13:58:33.429Z,25.21
2022-09-02T14:01:25.844Z,25.40
2022-09-02T14:03:58.998Z,25.52
2022-09-02T14:06:32.062Z,25.50
2022-09-02T14:09:04.080Z,25.48
2022-09-02T14:11:39.959Z,25.38
2022-09-02T14:14:10.325Z,25.22
2022-09-02T14:16:39.312Z,25.08
2022-09-02T14:19:14.942Z,25.02
2022-09-02T14:21:50.102Z,24.79
2022-09-02T14:24:23.306Z,24.51
2022-09-02T14:26:54.237Z,23.94
2022-09-02T14:29:24.443Z,23.46
2022-09-02T14:32:12.626Z,23.37
2022-09-02T14:34:43.330Z,23.34
2022-09-02T14:37:25.726Z,22.91
2022-09-02T14:40:03.808Z,22.40
2022-09-02T14:42:32.566Z,22.38
2022-09-02T14:45:06.783Z,22.22
2022-09-02T14:47:39.236Z,22.13
2022-09-02T14:50:15.544Z,22.29
2022-09-02T14:52:52.216Z,22.55
2022-09-02T14:55:45.324Z,22.72
2022-09-02T14:58:14.782Z,22.69
2022-09-02T15:00:46.675Z,22.59
2022-09-02T15:03:16.275Z,22.55
2022-09-02T15:05:45.081Z,22.56
2022-09-02T15:08:16.222Z,22.50
2022-09-02T15:10:46.327Z,22.45
2022-09-02T15:13:26.371Z,22.44
2022-09-02T15:15:57.146Z,22.49
2022-09-02T15:18:27.790Z,22.51
2022-09-02T15:20:57.907Z,22.42
2022-09-02T15:23:32.570Z,22.13
2022-09-02T15:26:03.958Z,21.93
2022-09-02T15:28:34.098Z,21.62
2022-09-02T15:31:04.017Z,21.36
2022-09-02T15:33:33.036Z,21.29
2022-09-02T15:36:09.502Z,21.33
2022-09-02T15:38:41.312Z,21.38
2022-09-02T15:41:18.901Z,21.45
2022-09-02T15:43:49.139Z,21.49
2022-09-02T15:46:23.733Z,21.52
2022-09-02T15:48:53.480Z,21.47
2022-09-02T15:51:24.168Z,21.43
2022-09-02T15:53:58.411Z,21.37
2022-09-02T15:56:28.597Z,21.32
2022-09-02T15:59:01.302Z,21.26
2022-09-02T16:01:33.629Z,21.14
2022-09-02T16:04:03.176Z,20.99
2022-09-02T16:06:33.246Z,20.79
2022-09-02T16:09:04.029Z,20.60
2022-09-02T16:11:33.608Z,20.41
2022-09-02T16:14:02.246Z,20.24
2022-09-02T16:16:30.853Z,20.09
2022-09-02T16:18:59.779Z,19.94
2022-09-02T16:21:30.268Z,19.85
2022-09-02T16:23:58.999Z,19.73
2022-09-02T16:26:30.567Z,19.62
2022-09-02T16:29:01.179Z,19.53
2022-09-02T16:31:32.791Z,19.40
2022-09-02T16:34:03.314Z,19.31
2022-09-02T16:36:33.938Z,19.23
2022-09-02T16:39:03.447Z,19.14
2022-09-02T16:41:35.626Z,19.04
2022-09-02T16:44:06.568Z,18.98
2022-09-02T16:46:36.854Z,18.91
2022-09-02T16:49:06.506Z,18.89
2022-09-02T16:51:35.064Z,18.83
2022-09-02T16:54:06.005Z,18.75
2022-09-02T16:56:38.175Z,18.65
2022-09-02T16:59:09.238Z,18.56
2022-09-02T17:01:39.023Z,18.41
2022-09-02T17:04:08.997Z,18.31
2022-09-02T17:06:42.056Z,18.24
2022-09-02T17:09:11.201Z,18.11
2022-09-02T17:11:42.758Z,18.00
2022-09-02T17:14:12.576Z,17.86
2022-09-02T17:16:46.639Z,17.77
2022-09-02T17:19:21.630Z,17.67
2022-09-02T17:21:52.266Z,17.55
2022-09-02T17:24:22.855Z,17.41
2022-09-02T17:26:56.471Z,17.27
2022-09-02T17:29:47.922Z,17.17
2022-09-02T17:32:18.446Z,17.06
2022-09-02T17:34:48.156Z,16.98
2022-09-02T17:37:18.632Z,16.96
2022-09-02T17:39:47.543Z,16.93
2022-09-02T17:42:16.921Z,16.86
2022-09-02T17:44:45.667Z,16.82
2022-09-02T17:47:16.455Z,16.73
2022-09-02T17:49:45.200Z,16.64
2022-09-02T17:52:15.686Z,16.56
2022-09-02T17:54:44.778Z,16.52
2022-09-02T17:57:43.206Z,16.48
2022-09-02T18:00:22.531Z,16.43
2022-09-02T18:03:25.836Z,16.37
2022-09-02T18:06:16.644Z,16.30
2022-09-02T18:08:53.042Z,16.24
2022-09-02T18:11:23.391Z,16.16
2022-09-02T18:14:04.525Z,16.07
2022-09-02T18:16:37.145Z,15.93
2022-09-02T18:19:14.408Z,15.75
2022-09-02T18:21:53.487Z,15.56
2022-09-02T18:24:32.310Z,15.39
2022-09-02T18:27:11.869Z,15.20
2022-09-02T18:29:54.324Z,15.03
2022-09-02T18:32:37.318Z,14.86
2022-09-02T18:35:23.811Z,14.73
2022-09-02T18:38:02.288Z,14.58
2022-09-02T18:40:44.272Z,14.49
2022-09-02T18:43:22.319Z,14.36
2022-09-02T18:45:54.824Z,14.23
2022-09-02T18:48:27.872Z,14.12
2022-09-02T18:51:00.398Z,14.03
2022-09-02T18:53:34.004Z,13.93
2022-09-02T18:56:07.171Z,13.82
2022-09-02T18:58:41.099Z,13.71
2022-09-02T19:01:19.026Z,13.60
2022-09-02T19:03:47.739Z,13.52
2022-09-02T19:06:19.406Z,13.40
2022-09-02T19:08:50.425Z,13.32
2022-09-02T19:11:20.114Z,13.26
2022-09-02T19:13:51.180Z,13.24
2022-09-02T19:16:23.788Z,13.22
2022-09-02T19:18:52.941Z,13.19
2022-09-02T19:21:31.658Z,13.19
2022-09-02T19:24:02.192Z,13.22
2022-09-02T19:26:30.731Z,13.20
2022-09-02T19:28:59.818Z,13.11
2022-09-02T19:31:36.666Z,12.95
2022-09-02T19:34:08.671Z,12.86
2022-09-02T19:36:44.371Z,12.70
2022-09-02T19:39:13.519Z,12.66
2022-09-02T19:41:42.286Z,12.62
2022-09-02T19:44:14.436Z,12.66
2022-09-02T19:49:41.123Z,12.74
2022-09-02T19:52:11.985Z,12.70
2022-09-02T19:54:42.199Z,12.59
2022-09-02T19:57:11.046Z,12.52
2022-09-02T19:59:40.575Z,12.46
2022-09-02T20:02:12.692Z,12.43
2022-09-02T20:04:41.631Z,12.40
2022-09-02T20:07:11.545Z,12.36
2022-09-02T20:09:41.304Z,12.31
2022-09-02T20:12:12.510Z,12.24
2022-09-02T20:14:41.498Z,12.22
2022-09-02T20:17:16.007Z,12.16
2022-09-02T20:19:45.070Z,12.11
2022-09-02T20:22:15.937Z,12.05
2022-09-02T20:24:45.056Z,11.96
2022-09-02T20:27:23.453Z,11.87
2022-09-02T20:30:12.154Z,11.76
2022-09-02T20:32:53.826Z,11.68
2022-09-02T20:35:57.475Z,11.62
2022-09-02T20:38:50.630Z,11.57
2022-09-02T20:41:30.919Z,11.50
2022-09-02T20:44:14.794Z,11.42
2022-09-02T20:46:56.612Z,11.33
2022-09-02T20:49:54.251Z,11.23
2022-09-02T20:52:31.475Z,11.21
2022-09-02T20:55:06.934Z,11.14
2022-09-02T20:58:13.854Z,11.09
2022-09-02T21:01:01.381Z,11.03
2022-09-02T21:03:43.226Z,11.00
2022-09-02T21:06:16.960Z,10.95
2022-09-02T21:08:58.395Z,10.88
2022-09-02T21:11:32.415Z,10.84
2022-09-02T21:14:08.331Z,10.77
2022-09-02T21:16:53.739Z,10.68
2022-09-02T21:19:30.524Z,10.61
2022-09-02T21:22:06.734Z,10.57
2022-09-02T21:24:40.611Z,10.55
2022-09-02T21:27:15.797Z,10.54
2022-09-02T21:29:50.965Z,10.47
2022-09-02T21:32:28.473Z,10.39
2022-09-02T21:35:02.272Z,10.30
2022-09-02T21:37:34.807Z,10.25
2022-09-02T21:40:08.414Z,10.20
2022-09-02T21:43:00.891Z,10.09
2022-09-02T21:45:41.808Z,9.97
2022-09-02T21:48:24.158Z,9.88
2022-09-02T21:50:59.499Z,9.80
2022-09-02T21:53:46.488Z,9.71
2022-09-02T21:56:27.540Z,9.65
2022-09-02T21:59:18.094Z,9.65
2022-09-02T22:01:55.012Z,9.59
2022-09-02T22:04:40.713Z,9.58
2022-09-02T22:07:19.194Z,9.57
2022-09-02T22:09:55.972Z,9.54
2022-09-02T22:12:26.871Z,9.52
2022-09-02T22:15:04.334Z,9.45
2022-09-02T22:17:48.408Z,9.38
2022-09-02T22:20:24.278Z,9.29
2022-09-02T22:22:55.822Z,9.24
2022-09-02T22:25:27.100Z,9.18
2022-09-02T22:28:02.700Z,9.14
2022-09-02T22:30:32.836Z,9.11
2022-09-02T22:33:08.999Z,9.07
2022-09-02T22:35:43.101Z,9.03
2022-09-02T22:38:26.677Z,9.00
2022-09-02T22:40:59.535Z,8.95
2022-09-02T22:43:36.068Z,8.88
2022-09-02T22:46:28.972Z,8.84
2022-09-02T22:49:18.503Z,8.86
2022-09-02T22:52:09.148Z,8.89
2022-09-02T22:54:37.840Z,8.86
2022-09-02T22:57:18.887Z,8.81
2022-09-02T23:00:02.544Z,8.77
2022-09-02T23:02:36.454Z,8.79
2022-09-02T23:05:37.413Z,8.77
2022-09-02T23:08:07.442Z,8.69
2022-09-02T23:10:40.722Z,8.63
2022-09-02T23:13:20.143Z,8.57
2022-09-02T23:15:59.160Z,8.57
2022-09-02T23:18:39.934Z,8.51
2022-09-02T23:21:22.629Z,8.43
2022-09-02T23:24:04.156Z,8.38
2022-09-02T23:26:42.249Z,8.33
2022-09-02T23:29:18.431Z,8.26
2022-09-02T23:32:06.747Z,8.16
2022-09-02T23:34:54.146Z,8.15
2022-09-02T23:37:35.119Z,8.11
2022-09-02T23:40:11.684Z,8.08
2022-09-02T23:42:41.042Z,8.12
2022-09-02T23:45:21.941Z,8.20
2022-09-02T23:48:25.746Z,8.24
2022-09-02T23:51:07.202Z,8.28
2022-09-02T23:53:42.078Z,8.30
2022-09-02T23:56:23.881Z,8.27
2022-09-02T23:59:11.899Z,8.19
